Cando, ND

11:25 PM CST on December 07, 2016 (GMT -0600)
Cando | | Change Station
Active Advisory: Special Statement Active Notice: Record Report

Elev 1480 ft 48.48 °N, 99.24 °W | Updated 10 minutes ago

Overcast
Overcast
10 °F
Feels Like -10 °F
N
23
Wind Variable Wind from NNW
Gusts 31 mph

Today
High -- | Low -- °F
--% Chance of Precip.
Yesterday
High -- | Low -- °F
Precip. -- in
Pressure 30.37 in
Visibility 10.0 miles
Clouds Overcast 6000 ft
Windchill -10 °F
Dew Point 7 °F
Humidity 85%
Rainfall 1.75 in
Snow Depth Not available.
8:15 AM 4:42 PM
First Quarter, 59% visible
METAR K9D7 080515Z AUTO 33020G27KT 10SM OVC060 M12/M14 A3037 RMK AO2
Pressure 30.37 in
Visibility 10.0 miles
Clouds Overcast 6000 ft
Windchill -10 °F
Dew Point 7 °F
Humidity 85%
Rainfall 1.75 in
Snow Depth Not available.
8:15 AM 4:42 PM
First Quarter, 59% visible
METAR K9D7 080515Z AUTO 33020G27KT 10SM OVC060 M12/M14 A3037 RMK AO2

10-Day Weather Forecast

Almanac

Astronomy

Dec. 07, 2016 Rise Set
Actual Time
Civil Twilight
Nautical Twilight
Astronomical Twilight
Moon
Length of Visible Light
Length of Day
Tomorrow will be .
, % of the Moon is Illuminated

Today's Extremes

State Highs State Lows

Community

WunderPhotos

Upload Photos

1,956,259 photos uploaded!

WunderBlog® & News

Nearby

Air Quality

  Air Quality AQ Index Pollutant
Not available.

Snow Depth

Station Depth Elevation

Earthquake Activity

City Distance Mag. Time & Date
Minimum magnitude displayed is 2.5.

Coastal Water Temperatures

Place Temperature

Stations

Nearby Weather Stations

Station Location Temp. Windchill Dew Point Humidity Wind Precip. Elev Updated Type
                   

Watches & Warnings

Special Statement
Issued: 9:04 PM CST Dec. 7, 2016 – National Weather Service

Winds have decreased slightly across the Devils Lake basin and Red
River valley allowing visibilities to improve. However, gusts of
20-30 mph will still be possible during the overnight hours and
into early Thursday morning. Therefore, some reductions in
visibility will still be possible in light snow showers or blowing
snow from this week's fresh snowfall, especially in open country.
Please continue to use caution when traveling overnight or during
the Thursday morning commute.


Lee

904 PM CST Wed Dec 7 2016

Winds have decreased slightly across the Devils Lake basin and Red
River valley allowing visibilities to improve. However, gusts of
20-30 mph will still be possible during the overnight hours and
into early Thursday morning. Therefore, some reductions in
visibility will still be possible in light snow showers or blowing
snow from this week's fresh snowfall, especially in open country.
Please continue to use caution when traveling overnight or during
the Thursday morning commute.


Lee